Aboyne, United Kingdom

1:41 AM BST on October 23, 2014 (GMT +0100)
ISCOTLAN34 | Change Station
CLOSE
Current Station
Personal Weather Station
Location: Aboyne, SCOTLAND
Elevation: 680 ft
Nearby Weather Stations

Elev 680 ft 57.04 °N, 2.72 °W | Updated 3 seconds ago

Clear
Clear
51.1 °F
Feels Like 51.1 °F
N
8.0
Wind Variable Wind from West
Gusts 17.0 mph

Today
High -- | Low -- °F
--% Chance of Precip.
Yesterday
High -- | Low -- °F
Precip. -- in
8:01 AM 5:48 PM
Waning Crescent, 1% visible
Pressure 29.74 in
Visibility 6.2 miles
Clouds
Dew Point 48 °F
Humidity 90%
Rainfall 0.00 in
Snow Depth Not available.
UV 0.0 out of 12
Pollen Not available.
Air Quality Not available.
Flu Activity Not available.
METAR EGPD 230020Z AUTO 21017KT 9999 NCD 11/09 Q1007

More Conditions Fewer Conditions

Pressure 29.74 in
Visibility 6.2 miles
Clouds
Dew Point 48 °F
Humidity 90%
Rainfall 0.00 in
Snow Depth Not available.
UV 0.0 out of 12
Pollen Not available.
Air Quality Not available.
Flu Activity Not available.
METAR EGPD 230020Z AUTO 21017KT 9999 NCD 11/09 Q1007

More Conditions Fewer Conditions

10-Day Weather Forecast

Almanac

Astronomy

Oct. 23, 2014 Rise Set
Actual Time 8:01 AM BST 5:48 PM BST
Civil Twilight 7:22 AM BST 6:28 PM BST
Nautical Twilight 6:37 AM BST 7:12 PM BST
Astronomical Twilight 5:53 AM BST 7:56 PM BST
Moon 7:21 AM BST 5:43 PM BST
Length of Visible Light 11h 06m
Length of Day
9h 46m
Tomorrow will be 4m 40s shorter.
Waning Crescent, 1% of the Moon is Illuminated
Oct 22
Waning Crescent
Oct 23
New
Oct 30
First Quarter
Nov 6
Full
Nov 14
Last Quarter

Yesterday's Extremes

Country Highs Country Lows

Community

WunderPhotos

Upload Photos

1,764,098 photos uploaded!

WunderBlogs® & News

Nearby

Snow Depth

Not available.

Earthquake Activity

City Distance Mag. Time & Date
No recent earthquake activity has been reported nearby.
Minimum magnitude displayed is 2.5.

Coastal Water Temperatures

Place Temperature
No Stations Reporting

Nearby Weather Stations